sensor_id;sensor_type;location;lat;lon;timestamp;pressure;altitude;pressure_sealevel;temperature;humidity
63665;BME280;49820;33.966;73.390;2022-10-24T00:02:09;78955.53;;;8.77;42.76
63665;BME280;49820;33.966;73.390;2022-10-24T00:04:39;78930.44;;;8.64;43.81
63665;BME280;49820;33.966;73.390;2022-10-24T00:07:08;78969.34;;;8.90;44.20
63665;BME280;49820;33.966;73.390;2022-10-24T00:09:37;78964.72;;;8.88;43.29
63665;BME280;49820;33.966;73.390;2022-10-24T00:12:07;78964.94;;;8.72;46.76
63665;BME280;49820;33.966;73.390;2022-10-24T00:14:37;78936.00;;;8.48;44.72
63665;BME280;49820;33.966;73.390;2022-10-24T00:17:05;78963.72;;;8.67;45.99
63665;BME280;49820;33.966;73.390;2022-10-24T00:19:35;78972.34;;;8.67;46.28
63665;BME280;49820;33.966;73.390;2022-10-24T00:22:04;78945.88;;;8.55;46.44
63665;BME280;49820;33.966;73.390;2022-10-24T00:24:32;78938.59;;;8.54;46.62
63665;BME280;49820;33.966;73.390;2022-10-24T00:27:01;78964.19;;;8.77;45.36
63665;BME280;49820;33.966;73.390;2022-10-24T00:29:30;78937.91;;;8.55;45.29
63665;BME280;49820;33.966;73.390;2022-10-24T00:31:59;78972.19;;;8.77;44.06
63665;BME280;49820;33.966;73.390;2022-10-24T00:34:28;78938.50;;;8.60;43.42
63665;BME280;49820;33.966;73.390;2022-10-24T00:36:57;78978.63;;;8.93;43.58
63665;BME280;49820;33.966;73.390;2022-10-24T00:39:26;78970.84;;;8.78;43.89
63665;BME280;49820;33.966;73.390;2022-10-24T00:41:55;78938.66;;;8.50;44.09
63665;BME280;49820;33.966;73.390;2022-10-24T00:44:32;78967.63;;;8.70;44.05
63665;BME280;49820;33.966;73.390;2022-10-24T00:47:09;78982.22;;;8.75;44.82
63665;BME280;49820;33.966;73.390;2022-10-24T00:52:31;78992.19;;;8.76;44.47
63665;BME280;49820;33.966;73.390;2022-10-24T00:55:04;78959.91;;;8.52;43.93
63665;BME280;49820;33.966;73.390;2022-10-24T01:00:30;78985.38;;;8.86;43.87
63665;BME280;49820;33.966;73.390;2022-10-24T01:03:00;78974.78;;;8.84;43.93
63665;BME280;49820;33.966;73.390;2022-10-24T01:05:39;78976.72;;;8.87;44.66
63665;BME280;49820;33.966;73.390;2022-10-24T01:08:41;78963.53;;;8.77;45.87
63665;BME280;49820;33.966;73.390;2022-10-24T01:11:39;78973.50;;;8.78;46.15
63665;BME280;49820;33.966;73.390;2022-10-24T01:20:21;78977.97;;;8.45;47.80
63665;BME280;49820;33.966;73.390;2022-10-24T01:25:42;78984.84;;;8.77;47.34
63665;BME280;49820;33.966;73.390;2022-10-24T01:28:26;78943.09;;;8.63;48.22
63665;BME280;49820;33.966;73.390;2022-10-24T01:31:07;78987.78;;;9.04;47.56
63665;BME280;49820;33.966;73.390;2022-10-24T01:33:41;78974.97;;;9.14;49.88
63665;BME280;49820;33.966;73.390;2022-10-24T01:36:35;78979.13;;;9.46;48.24
63665;BME280;49820;33.966;73.390;2022-10-24T01:39:11;78964.88;;;9.60;45.93
63665;BME280;49820;33.966;73.390;2022-10-24T01:41:43;78951.88;;;10.14;44.83
63665;BME280;49820;33.966;73.390;2022-10-24T01:44:36;78964.38;;;10.58;46.49
63665;BME280;49820;33.966;73.390;2022-10-24T01:47:20;78968.59;;;10.80;49.34
63665;BME280;49820;33.966;73.390;2022-10-24T01:49:56;78981.19;;;11.17;45.58
63665;BME280;49820;33.966;73.390;2022-10-24T01:52:30;78972.34;;;11.24;44.33
63665;BME280;49820;33.966;73.390;2022-10-24T01:55:02;78975.94;;;11.70;44.63
63665;BME280;49820;33.966;73.390;2022-10-24T01:57:33;78986.34;;;12.11;48.12
63665;BME280;49820;33.966;73.390;2022-10-24T02:00:05;78974.06;;;12.20;46.33
63665;BME280;49820;33.966;73.390;2022-10-24T02:02:59;78985.22;;;12.56;45.22
63665;BME280;49820;33.966;73.390;2022-10-24T02:05:40;78988.50;;;12.83;43.37
63665;BME280;49820;33.966;73.390;2022-10-24T02:08:13;78976.91;;;13.16;42.51
63665;BME280;49820;33.966;73.390;2022-10-24T02:10:51;78980.56;;;13.52;43.26
63665;BME280;49820;33.966;73.390;2022-10-24T02:13:26;78993.91;;;13.77;37.31
63665;BME280;49820;33.966;73.390;2022-10-24T02:15:59;78995.34;;;14.17;42.72
63665;BME280;49820;33.966;73.390;2022-10-24T02:18:31;78977.69;;;14.45;39.40
63665;BME280;49820;33.966;73.390;2022-10-24T02:27:00;78993.34;;;15.19;42.41
63665;BME280;49820;33.966;73.390;2022-10-24T02:32:09;78980.03;;;15.55;43.17
63665;BME280;49820;33.966;73.390;2022-10-24T02:34:41;79007.72;;;16.08;38.61
63665;BME280;49820;33.966;73.390;2022-10-24T02:37:12;79012.06;;;16.17;42.61
63665;BME280;49820;33.966;73.390;2022-10-24T02:39:45;79001.22;;;16.19;35.14
63665;BME280;49820;33.966;73.390;2022-10-24T02:42:15;79002.97;;;16.27;29.75
63665;BME280;49820;33.966;73.390;2022-10-24T02:44:46;79015.34;;;16.55;30.65
63665;BME280;49820;33.966;73.390;2022-10-24T02:47:18;79004.91;;;16.64;29.20
63665;BME280;49820;33.966;73.390;2022-10-24T02:49:49;79008.22;;;16.83;29.02
63665;BME280;49820;33.966;73.390;2022-10-24T02:52:18;79024.69;;;17.10;28.95
63665;BME280;49820;33.966;73.390;2022-10-24T02:54:48;79026.63;;;17.29;28.38
63665;BME280;49820;33.966;73.390;2022-10-24T02:57:18;79026.06;;;17.26;27.32
63665;BME280;49820;33.966;73.390;2022-10-24T02:59:49;79017.78;;;17.30;25.94
63665;BME280;49820;33.966;73.390;2022-10-24T03:02:18;79021.22;;;17.45;26.54
63665;BME280;49820;33.966;73.390;2022-10-24T03:04:48;79021.88;;;17.63;28.05
63665;BME280;49820;33.966;73.390;2022-10-24T03:07:17;79030.22;;;17.57;29.12
63665;BME280;49820;33.966;73.390;2022-10-24T03:09:46;79027.34;;;17.27;30.14
63665;BME280;49820;33.966;73.390;2022-10-24T03:12:16;79013.88;;;17.10;32.16
63665;BME280;49820;33.966;73.390;2022-10-24T03:14:45;79042.97;;;17.58;30.11
63665;BME280;49820;33.966;73.390;2022-10-24T03:17:13;79036.81;;;17.76;28.63
63665;BME280;49820;33.966;73.390;2022-10-24T03:19:42;79034.69;;;17.79;27.87
63665;BME280;49820;33.966;73.390;2022-10-24T03:22:12;79037.44;;;17.93;29.89
63665;BME280;49820;33.966;73.390;2022-10-24T03:24:41;79049.09;;;18.21;26.93
63665;BME280;49820;33.966;73.390;2022-10-24T03:27:21;79031.44;;;18.54;28.61
63665;BME280;49820;33.966;73.390;2022-10-24T03:29:50;79037.91;;;18.76;25.10
63665;BME280;49820;33.966;73.390;2022-10-24T03:32:19;79023.41;;;18.52;32.23
63665;BME280;49820;33.966;73.390;2022-10-24T03:34:48;79033.38;;;18.41;37.92
63665;BME280;49820;33.966;73.390;2022-10-24T03:37:17;79014.06;;;18.34;37.91
63665;BME280;49820;33.966;73.390;2022-10-24T03:39:46;79047.84;;;18.50;39.30
63665;BME280;49820;33.966;73.390;2022-10-24T03:42:15;79039.72;;;18.50;38.48
63665;BME280;49820;33.966;73.390;2022-10-24T03:44:43;78992.31;;;17.75;40.29
63665;BME280;49820;33.966;73.390;2022-10-24T03:47:13;79040.38;;;17.73;43.18
63665;BME280;49820;33.966;73.390;2022-10-24T03:49:41;79038.28;;;17.90;42.10
63665;BME280;49820;33.966;73.390;2022-10-24T03:52:11;79053.19;;;17.89;37.68
63665;BME280;49820;33.966;73.390;2022-10-24T03:54:40;79043.22;;;17.69;40.70
63665;BME280;49820;33.966;73.390;2022-10-24T03:57:09;79049.13;;;17.40;41.90
63665;BME280;49820;33.966;73.390;2022-10-24T03:59:38;79042.16;;;17.28;41.96
63665;BME280;49820;33.966;73.390;2022-10-24T04:02:08;79050.56;;;16.87;40.65
63665;BME280;49820;33.966;73.390;2022-10-24T04:04:36;79046.09;;;16.62;46.84
63665;BME280;49820;33.966;73.390;2022-10-24T04:07:05;79034.38;;;16.51;43.34
63665;BME280;49820;33.966;73.390;2022-10-24T04:09:34;79037.78;;;16.33;45.16
63665;BME280;49820;33.966;73.390;2022-10-24T04:12:03;79044.63;;;16.30;45.26
63665;BME280;49820;33.966;73.390;2022-10-24T04:14:32;79039.19;;;16.13;46.09
63665;BME280;49820;33.966;73.390;2022-10-24T04:17:01;79061.91;;;16.37;47.22
63665;BME280;49820;33.966;73.390;2022-10-24T04:19:30;79059.06;;;16.22;49.02
63665;BME280;49820;33.966;73.390;2022-10-24T04:21:59;79035.13;;;15.95;49.91
63665;BME280;49820;33.966;73.390;2022-10-24T04:24:28;79051.06;;;16.01;50.36
63665;BME280;49820;33.966;73.390;2022-10-24T04:26:56;79062.13;;;15.93;49.35
63665;BME280;49820;33.966;73.390;2022-10-24T04:29:25;79037.66;;;15.62;49.68
63665;BME280;49820;33.966;73.390;2022-10-24T04:31:55;79035.13;;;15.77;51.65
63665;BME280;49820;33.966;73.390;2022-10-24T04:34:23;79053.53;;;15.70;54.58
63665;BME280;49820;33.966;73.390;2022-10-24T04:36:52;79049.66;;;15.65;50.87
63665;BME280;49820;33.966;73.390;2022-10-24T04:39:21;79062.03;;;15.58;45.97
63665;BME280;49820;33.966;73.390;2022-10-24T04:41:50;79033.31;;;15.50;55.28
63665;BME280;49820;33.966;73.390;2022-10-24T04:44:20;79053.19;;;15.80;52.12
63665;BME280;49820;33.966;73.390;2022-10-24T04:46:49;79023.38;;;15.65;50.08
63665;BME280;49820;33.966;73.390;2022-10-24T04:49:19;79044.44;;;15.98;52.82
63665;BME280;49820;33.966;73.390;2022-10-24T04:51:47;79040.13;;;16.06;51.23
63665;BME280;49820;33.966;73.390;2022-10-24T04:54:16;79059.09;;;16.39;46.05
63665;BME280;49820;33.966;73.390;2022-10-24T04:56:46;79049.13;;;16.35;48.33
63665;BME280;49820;33.966;73.390;2022-10-24T04:59:14;79046.56;;;16.50;52.06
63665;BME280;49820;33.966;73.390;2022-10-24T05:01:44;79048.94;;;16.77;49.93
63665;BME280;49820;33.966;73.390;2022-10-24T05:04:12;79054.75;;;16.84;52.08
63665;BME280;49820;33.966;73.390;2022-10-24T05:06:41;79040.44;;;17.04;47.04
63665;BME280;49820;33.966;73.390;2022-10-24T05:09:12;79044.72;;;17.49;48.50
63665;BME280;49820;33.966;73.390;2022-10-24T05:11:42;79045.34;;;17.83;45.42
63665;BME280;49820;33.966;73.390;2022-10-24T05:14:11;79049.56;;;18.26;44.22
63665;BME280;49820;33.966;73.390;2022-10-24T05:16:41;79022.63;;;18.24;45.92
63665;BME280;49820;33.966;73.390;2022-10-24T05:19:10;79032.88;;;18.67;44.22
63665;BME280;49820;33.966;73.390;2022-10-24T05:21:39;79040.72;;;19.18;41.74
63665;BME280;49820;33.966;73.390;2022-10-24T05:24:08;79031.97;;;19.74;45.35
63665;BME280;49820;33.966;73.390;2022-10-24T05:26:37;79043.78;;;20.23;40.53
63665;BME280;49820;33.966;73.390;2022-10-24T05:29:06;79026.75;;;20.52;42.82
63665;BME280;49820;33.966;73.390;2022-10-24T05:31:35;79041.84;;;21.14;40.01
63665;BME280;49820;33.966;73.390;2022-10-24T05:34:05;79027.28;;;21.45;39.37
63665;BME280;49820;33.966;73.390;2022-10-24T05:36:34;79011.16;;;21.79;37.98
63665;BME280;49820;33.966;73.390;2022-10-24T05:39:03;79026.34;;;21.99;41.02
63665;BME280;49820;33.966;73.390;2022-10-24T05:41:32;79036.94;;;22.65;39.44
63665;BME280;49820;33.966;73.390;2022-10-24T05:44:00;79018.25;;;22.82;37.20
63665;BME280;49820;33.966;73.390;2022-10-24T05:46:30;79020.84;;;23.07;38.40
63665;BME280;49820;33.966;73.390;2022-10-24T05:48:58;79008.38;;;23.44;40.92
63665;BME280;49820;33.966;73.390;2022-10-24T05:51:27;79002.19;;;23.56;32.99
63665;BME280;49820;33.966;73.390;2022-10-24T05:53:56;79010.50;;;23.54;34.13
63665;BME280;49820;33.966;73.390;2022-10-24T05:56:26;79016.69;;;23.87;37.77
63665;BME280;49820;33.966;73.390;2022-10-24T05:58:56;79023.38;;;24.43;38.21
63665;BME280;49820;33.966;73.390;2022-10-24T06:01:25;79002.84;;;24.55;34.94
63665;BME280;49820;33.966;73.390;2022-10-24T06:03:55;78998.28;;;24.51;28.19
63665;BME280;49820;33.966;73.390;2022-10-24T06:06:27;79004.91;;;24.97;32.05
63665;BME280;49820;33.966;73.390;2022-10-24T06:08:56;78984.91;;;24.47;27.38
63665;BME280;49820;33.966;73.390;2022-10-24T06:11:24;79003.72;;;25.04;31.51
63665;BME280;49820;33.966;73.390;2022-10-24T06:13:53;79001.13;;;24.07;23.64
63665;BME280;49820;33.966;73.390;2022-10-24T06:16:22;79000.09;;;24.12;26.89
63665;BME280;49820;33.966;73.390;2022-10-24T06:18:52;78992.06;;;24.21;27.66
63665;BME280;49820;33.966;73.390;2022-10-24T06:21:21;78994.38;;;24.80;29.68
63665;BME280;49820;33.966;73.390;2022-10-24T06:23:50;78995.69;;;24.39;26.51
63665;BME280;49820;33.966;73.390;2022-10-24T06:26:19;78978.88;;;24.66;26.22
63665;BME280;49820;33.966;73.390;2022-10-24T06:28:50;78982.53;;;23.99;29.31
63665;BME280;49820;33.966;73.390;2022-10-24T06:31:19;78999.44;;;24.97;26.79
63665;BME280;49820;33.966;73.390;2022-10-24T06:33:48;78994.00;;;24.54;28.06
63665;BME280;49820;33.966;73.390;2022-10-24T06:36:17;78987.06;;;24.66;28.88
63665;BME280;49820;33.966;73.390;2022-10-24T06:38:47;78993.81;;;25.09;28.18
63665;BME280;49820;33.966;73.390;2022-10-24T06:41:16;78975.38;;;24.67;28.00
63665;BME280;49820;33.966;73.390;2022-10-24T06:43:45;78958.59;;;24.10;28.94
63665;BME280;49820;33.966;73.390;2022-10-24T06:46:16;78966.41;;;24.69;30.20
63665;BME280;49820;33.966;73.390;2022-10-24T06:48:45;78966.56;;;24.56;25.58
63665;BME280;49820;33.966;73.390;2022-10-24T06:51:15;78975.72;;;23.76;26.72
63665;BME280;49820;33.966;73.390;2022-10-24T06:53:44;78963.28;;;23.90;28.59
63665;BME280;49820;33.966;73.390;2022-10-24T06:56:12;78970.13;;;23.68;27.09
63665;BME280;49820;33.966;73.390;2022-10-24T06:58:42;78954.78;;;23.51;28.03
63665;BME280;49820;33.966;73.390;2022-10-24T07:01:15;78960.84;;;24.07;28.54
63665;BME280;49820;33.966;73.390;2022-10-24T07:03:45;78956.66;;;24.08;28.15
63665;BME280;49820;33.966;73.390;2022-10-24T07:06:16;78954.59;;;23.98;27.39
63665;BME280;49820;33.966;73.390;2022-10-24T07:08:47;78952.28;;;23.47;28.42
63665;BME280;49820;33.966;73.390;2022-10-24T07:11:17;78951.31;;;23.74;28.05
63665;BME280;49820;33.966;73.390;2022-10-24T07:13:46;78949.66;;;24.11;30.68
63665;BME280;49820;33.966;73.390;2022-10-24T07:16:17;78946.84;;;24.86;29.50
63665;BME280;49820;33.966;73.390;2022-10-24T07:18:46;78944.31;;;25.14;30.38
63665;BME280;49820;33.966;73.390;2022-10-24T07:21:19;78948.44;;;24.72;26.29
63665;BME280;49820;33.966;73.390;2022-10-24T07:23:50;78913.41;;;23.91;27.51
63665;BME280;49820;33.966;73.390;2022-10-24T07:26:20;78934.03;;;24.42;28.55
63665;BME280;49820;33.966;73.390;2022-10-24T07:28:52;78931.31;;;24.52;28.95
63665;BME280;49820;33.966;73.390;2022-10-24T07:31:40;78910.69;;;24.75;27.66
63665;BME280;49820;33.966;73.390;2022-10-24T07:34:09;78921.03;;;24.10;27.94
63665;BME280;49820;33.966;73.390;2022-10-24T07:36:38;78894.38;;;24.43;30.54
63665;BME280;49820;33.966;73.390;2022-10-24T07:39:11;78922.75;;;23.94;26.97
63665;BME280;49820;33.966;73.390;2022-10-24T07:41:41;78913.13;;;24.27;30.39
63665;BME280;49820;33.966;73.390;2022-10-24T07:44:10;78890.69;;;24.67;30.19
63665;BME280;49820;33.966;73.390;2022-10-24T07:46:40;78904.69;;;25.23;31.48
63665;BME280;49820;33.966;73.390;2022-10-24T07:49:10;78889.16;;;24.90;27.56
63665;BME280;49820;33.966;73.390;2022-10-24T07:51:40;78890.75;;;24.87;27.42
63665;BME280;49820;33.966;73.390;2022-10-24T07:54:09;78887.38;;;25.27;26.56
63665;BME280;49820;33.966;73.390;2022-10-24T07:56:38;78861.31;;;25.28;25.13
63665;BME280;49820;33.966;73.390;2022-10-24T07:59:07;78873.38;;;25.12;25.83
63665;BME280;49820;33.966;73.390;2022-10-24T08:01:55;78870.13;;;25.09;25.39
63665;BME280;49820;33.966;73.390;2022-10-24T08:04:24;78868.53;;;25.42;27.44
63665;BME280;49820;33.966;73.390;2022-10-24T08:06:53;78877.19;;;25.55;24.69
63665;BME280;49820;33.966;73.390;2022-10-24T08:09:22;78877.84;;;24.55;27.80
63665;BME280;49820;33.966;73.390;2022-10-24T08:11:51;78861.56;;;25.04;27.07
63665;BME280;49820;33.966;73.390;2022-10-24T08:14:20;78842.44;;;25.24;25.01
63665;BME280;49820;33.966;73.390;2022-10-24T08:16:49;78846.22;;;25.48;25.01
63665;BME280;49820;33.966;73.390;2022-10-24T08:19:17;78852.00;;;24.73;31.33
63665;BME280;49820;33.966;73.390;2022-10-24T08:21:46;78859.69;;;24.09;23.46
63665;BME280;49820;33.966;73.390;2022-10-24T08:24:18;78841.16;;;24.52;24.15
63665;BME280;49820;33.966;73.390;2022-10-24T08:26:47;78843.88;;;25.23;25.07
63665;BME280;49820;33.966;73.390;2022-10-24T08:29:17;78838.28;;;25.25;23.86
63665;BME280;49820;33.966;73.390;2022-10-24T08:31:55;78818.69;;;25.12;25.55
63665;BME280;49820;33.966;73.390;2022-10-24T08:34:24;78818.53;;;24.94;27.46
63665;BME280;49820;33.966;73.390;2022-10-24T08:36:53;78820.59;;;24.64;23.01
63665;BME280;49820;33.966;73.390;2022-10-24T08:39:23;78809.63;;;25.04;23.64
63665;BME280;49820;33.966;73.390;2022-10-24T08:42:03;78831.69;;;24.81;28.90
63665;BME280;49820;33.966;73.390;2022-10-24T08:44:40;78812.75;;;24.28;24.26
63665;BME280;49820;33.966;73.390;2022-10-24T08:52:33;78814.75;;;23.98;25.42
63665;BME280;49820;33.966;73.390;2022-10-24T08:55:13;78806.00;;;24.27;26.18
63665;BME280;49820;33.966;73.390;2022-10-24T08:58:04;78827.88;;;24.06;25.19
63665;BME280;49820;33.966;73.390;2022-10-24T09:00:40;78816.38;;;24.35;32.41
63665;BME280;49820;33.966;73.390;2022-10-24T09:06:21;78793.22;;;23.72;29.83
63665;BME280;49820;33.966;73.390;2022-10-24T09:11:48;78816.63;;;23.58;26.50
63665;BME280;49820;33.966;73.390;2022-10-24T09:14:43;78815.81;;;23.17;26.25
63665;BME280;49820;33.966;73.390;2022-10-24T09:17:19;78815.44;;;22.68;29.40
63665;BME280;49820;33.966;73.390;2022-10-24T09:22:19;78798.25;;;23.04;26.59
63665;BME280;49820;33.966;73.390;2022-10-24T09:25:02;78784.78;;;22.46;28.06
63665;BME280;49820;33.966;73.390;2022-10-24T09:27:36;78766.63;;;22.43;28.09
63665;BME280;49820;33.966;73.390;2022-10-24T09:30:13;78791.94;;;22.52;28.76
63665;BME280;49820;33.966;73.390;2022-10-24T09:32:44;78770.59;;;22.23;34.01
63665;BME280;49820;33.966;73.390;2022-10-24T09:35:23;78788.06;;;22.60;28.58
63665;BME280;49820;33.966;73.390;2022-10-24T09:40:55;78788.66;;;21.82;28.07
63665;BME280;49820;33.966;73.390;2022-10-24T09:46:09;78791.84;;;22.20;30.43
63665;BME280;49820;33.966;73.390;2022-10-24T09:49:00;78781.97;;;22.15;28.54
63665;BME280;49820;33.966;73.390;2022-10-24T09:51:36;78775.34;;;22.45;27.81
63665;BME280;49820;33.966;73.390;2022-10-24T09:59:33;78780.16;;;22.66;26.88
63665;BME280;49820;33.966;73.390;2022-10-24T10:07:39;78764.78;;;22.84;28.14
63665;BME280;49820;33.966;73.390;2022-10-24T10:10:33;78770.69;;;22.65;27.28
63665;BME280;49820;33.966;73.390;2022-10-24T10:13:18;78762.41;;;22.67;27.00
63665;BME280;49820;33.966;73.390;2022-10-24T10:16:00;78770.97;;;22.17;28.32
63665;BME280;49820;33.966;73.390;2022-10-24T10:23:48;78771.13;;;22.25;28.46
63665;BME280;49820;33.966;73.390;2022-10-24T10:29:04;78762.06;;;22.39;27.46
63665;BME280;49820;33.966;73.390;2022-10-24T10:31:41;78760.50;;;22.32;27.88
63665;BME280;49820;33.966;73.390;2022-10-24T10:50:38;78759.84;;;21.63;28.83
63665;BME280;49820;33.966;73.390;2022-10-24T10:53:29;78759.41;;;21.12;30.71
63665;BME280;49820;33.966;73.390;2022-10-24T10:58:52;78727.44;;;20.89;29.52
63665;BME280;49820;33.966;73.390;2022-10-24T11:01:57;78761.09;;;20.94;31.50
63665;BME280;49820;33.966;73.390;2022-10-24T11:04:36;78765.16;;;20.83;29.29
63665;BME280;49820;33.966;73.390;2022-10-24T11:09:58;78739.41;;;20.33;29.30
63665;BME280;49820;33.966;73.390;2022-10-24T11:12:41;78767.53;;;19.77;30.19
63665;BME280;49820;33.966;73.390;2022-10-24T11:15:34;78749.44;;;19.21;30.92
63665;BME280;49820;33.966;73.390;2022-10-24T11:18:11;78766.19;;;18.56;32.30
63665;BME280;49820;33.966;73.390;2022-10-24T11:20:54;78763.59;;;18.12;32.55
63665;BME280;49820;33.966;73.390;2022-10-24T11:26:33;78769.81;;;17.20;35.55
63665;BME280;49820;33.966;73.390;2022-10-24T11:29:22;78771.16;;;16.90;34.51
63665;BME280;49820;33.966;73.390;2022-10-24T11:32:14;78765.47;;;16.33;35.96
63665;BME280;49820;33.966;73.390;2022-10-24T11:34:52;78765.91;;;15.89;36.76
63665;BME280;49820;33.966;73.390;2022-10-24T11:37:33;78736.00;;;15.28;38.04
63665;BME280;49820;33.966;73.390;2022-10-24T11:40:19;78739.91;;;15.15;38.75
63665;BME280;49820;33.966;73.390;2022-10-24T11:48:29;78753.88;;;14.65;35.97
63665;BME280;49820;33.966;73.390;2022-10-24T11:53:54;78773.09;;;14.34;37.13
63665;BME280;49820;33.966;73.390;2022-10-24T11:56:37;78764.59;;;14.09;38.71
63665;BME280;49820;33.966;73.390;2022-10-24T11:59:16;78763.38;;;13.85;38.39
63665;BME280;49820;33.966;73.390;2022-10-24T12:16:05;78767.47;;;13.43;31.19
63665;BME280;49820;33.966;73.390;2022-10-24T12:21:17;78779.16;;;13.12;31.70
63665;BME280;49820;33.966;73.390;2022-10-24T12:23:57;78759.84;;;12.87;30.48
63665;BME280;49820;33.966;73.390;2022-10-24T12:26:33;78757.22;;;12.85;30.26
63665;BME280;49820;33.966;73.390;2022-10-24T12:29:17;78771.63;;;12.96;26.22
63665;BME280;49820;33.966;73.390;2022-10-24T12:31:48;78761.25;;;12.84;26.75
63665;BME280;49820;33.966;73.390;2022-10-24T12:39:42;78779.72;;;12.94;27.76
63665;BME280;49820;33.966;73.390;2022-10-24T12:53:17;78785.78;;;12.72;25.15
63665;BME280;49820;33.966;73.390;2022-10-24T12:58:31;78774.63;;;12.17;27.36
63665;BME280;49820;33.966;73.390;2022-10-24T13:01:23;78773.06;;;12.02;30.34
63665;BME280;49820;33.966;73.390;2022-10-24T13:09:55;78788.75;;;11.66;34.26
63665;BME280;49820;33.966;73.390;2022-10-24T13:15:21;78769.31;;;11.16;38.98
63665;BME280;49820;33.966;73.390;2022-10-24T13:18:09;78795.13;;;10.99;39.22
63665;BME280;49820;33.966;73.390;2022-10-24T13:20:43;78767.91;;;10.63;38.82
63665;BME280;49820;33.966;73.390;2022-10-24T13:23:25;78789.91;;;10.66;37.57
63665;BME280;49820;33.966;73.390;2022-10-24T13:25:56;78792.81;;;10.56;39.14
63665;BME280;49820;33.966;73.390;2022-10-24T13:38:54;78799.91;;;10.06;39.74
63665;BME280;49820;33.966;73.390;2022-10-24T13:41:28;78800.03;;;10.00;39.84
63665;BME280;49820;33.966;73.390;2022-10-24T13:44:16;78796.88;;;9.91;39.74
63665;BME280;49820;33.966;73.390;2022-10-24T13:55:11;78785.72;;;9.49;43.73
63665;BME280;49820;33.966;73.390;2022-10-24T13:57:51;78818.06;;;9.66;42.23
63665;BME280;49820;33.966;73.390;2022-10-24T14:00:25;78816.22;;;9.58;43.40
63665;BME280;49820;33.966;73.390;2022-10-24T14:02:56;78802.47;;;9.46;42.24
63665;BME280;49820;33.966;73.390;2022-10-24T14:05:39;78820.34;;;9.51;42.64
63665;BME280;49820;33.966;73.390;2022-10-24T14:08:35;78814.44;;;9.47;42.95
63665;BME280;49820;33.966;73.390;2022-10-24T14:11:07;78812.66;;;9.35;43.34
63665;BME280;49820;33.966;73.390;2022-10-24T14:13:49;78807.56;;;9.23;43.27
63665;BME280;49820;33.966;73.390;2022-10-24T14:16:28;78825.50;;;9.27;43.61
63665;BME280;49820;33.966;73.390;2022-10-24T14:21:50;78788.78;;;8.94;42.87
63665;BME280;49820;33.966;73.390;2022-10-24T14:24:21;78796.16;;;8.92;42.05
63665;BME280;49820;33.966;73.390;2022-10-24T14:26:52;78796.78;;;8.92;42.11
63665;BME280;49820;33.966;73.390;2022-10-24T14:29:28;78825.25;;;9.04;43.55
63665;BME280;49820;33.966;73.390;2022-10-24T14:32:04;78825.19;;;9.08;46.78
63665;BME280;49820;33.966;73.390;2022-10-24T14:34:38;78795.81;;;8.73;44.49
63665;BME280;49820;33.966;73.390;2022-10-24T14:37:14;78809.63;;;8.84;46.40
63665;BME280;49820;33.966;73.390;2022-10-24T14:39:44;78788.59;;;8.67;47.65
63665;BME280;49820;33.966;73.390;2022-10-24T14:42:16;78834.56;;;9.05;45.35
63665;BME280;49820;33.966;73.390;2022-10-24T14:44:47;78815.59;;;8.84;45.78
63665;BME280;49820;33.966;73.390;2022-10-24T14:47:31;78826.22;;;8.86;46.98
63665;BME280;49820;33.966;73.390;2022-10-24T14:50:02;78816.38;;;8.76;46.86
63665;BME280;49820;33.966;73.390;2022-10-24T14:52:33;78824.97;;;8.81;45.61
63665;BME280;49820;33.966;73.390;2022-10-24T14:55:18;78836.28;;;8.82;47.09
63665;BME280;49820;33.966;73.390;2022-10-24T14:57:51;78821.25;;;8.66;46.03
63665;BME280;49820;33.966;73.390;2022-10-24T15:00:24;78827.16;;;8.70;45.65
63665;BME280;49820;33.966;73.390;2022-10-24T15:02:56;78825.88;;;8.67;45.29
63665;BME280;49820;33.966;73.390;2022-10-24T15:05:29;78823.91;;;8.66;46.73
63665;BME280;49820;33.966;73.390;2022-10-24T15:08:17;78835.28;;;8.62;47.37
63665;BME280;49820;33.966;73.390;2022-10-24T15:11:04;78826.00;;;8.59;49.47
63665;BME280;49820;33.966;73.390;2022-10-24T15:13:43;78833.25;;;8.63;51.92
63665;BME280;49820;33.966;73.390;2022-10-24T15:16:38;78827.44;;;8.52;47.56
63665;BME280;49820;33.966;73.390;2022-10-24T15:19:12;78834.06;;;8.55;48.80
63665;BME280;49820;33.966;73.390;2022-10-24T15:21:43;78834.81;;;8.50;48.07
63665;BME280;49820;33.966;73.390;2022-10-24T15:24:22;78836.19;;;8.47;49.30
63665;BME280;49820;33.966;73.390;2022-10-24T15:27:06;78838.53;;;8.67;48.52
63665;BME280;49820;33.966;73.390;2022-10-24T15:29:38;78808.38;;;8.78;46.32
63665;BME280;49820;33.966;73.390;2022-10-24T15:32:09;78825.50;;;8.90;48.51
63665;BME280;49820;33.966;73.390;2022-10-24T15:34:39;78821.06;;;8.76;48.30
63665;BME280;49820;33.966;73.390;2022-10-24T15:37:21;78816.44;;;8.74;50.46
63665;BME280;49820;33.966;73.390;2022-10-24T15:39:52;78834.94;;;8.83;51.30
63665;BME280;49820;33.966;73.390;2022-10-24T15:42:21;78812.56;;;8.67;47.89
63665;BME280;49820;33.966;73.390;2022-10-24T15:44:50;78823.66;;;8.80;48.32
63665;BME280;49820;33.966;73.390;2022-10-24T15:47:20;78805.94;;;8.64;50.25
63665;BME280;49820;33.966;73.390;2022-10-24T15:49:52;78824.56;;;8.66;52.91
63665;BME280;49820;33.966;73.390;2022-10-24T15:52:21;78803.03;;;8.39;54.69
63665;BME280;49820;33.966;73.390;2022-10-24T15:54:50;78814.22;;;8.46;54.96
63665;BME280;49820;33.966;73.390;2022-10-24T15:57:19;78803.78;;;8.34;55.62
63665;BME280;49820;33.966;73.390;2022-10-24T15:59:48;78816.34;;;8.39;56.04
63665;BME280;49820;33.966;73.390;2022-10-24T16:02:21;78805.84;;;8.27;57.14
63665;BME280;49820;33.966;73.390;2022-10-24T16:04:51;78823.09;;;8.34;58.45
63665;BME280;49820;33.966;73.390;2022-10-24T16:07:20;78807.94;;;8.23;57.14